sensor_id;sensor_type;location;lat;lon;timestamp;P1;durP1;ratioP1;P2;durP2;ratioP2
72645;SDS011;60687;53.876;10.674;2024-02-21T00:05:51;29.58;;;13.10;;
72645;SDS011;60687;53.876;10.674;2024-02-21T00:15:55;32.13;;;13.53;;
72645;SDS011;60687;53.876;10.674;2024-02-21T00:25:58;29.80;;;13.07;;
72645;SDS011;60687;53.876;10.674;2024-02-21T00:36:07;27.77;;;13.10;;
72645;SDS011;60687;53.876;10.674;2024-02-21T00:46:12;29.97;;;12.53;;
72645;SDS011;60687;53.876;10.674;2024-02-21T00:56:16;29.63;;;12.13;;
72645;SDS011;60687;53.876;10.674;2024-02-21T01:06:25;31.42;;;12.85;;
72645;SDS011;60687;53.876;10.674;2024-02-21T01:16:33;30.50;;;13.00;;
72645;SDS011;60687;53.876;10.674;2024-02-21T01:26:42;27.60;;;12.30;;
72645;SDS011;60687;53.876;10.674;2024-02-21T01:36:57;29.05;;;11.70;;
72645;SDS011;60687;53.876;10.674;2024-02-21T01:47:05;27.63;;;12.15;;
72645;SDS011;60687;53.876;10.674;2024-02-21T01:57:10;29.97;;;13.67;;
72645;SDS011;60687;53.876;10.674;2024-02-21T02:07:15;26.80;;;11.80;;
72645;SDS011;60687;53.876;10.674;2024-02-21T02:17:32;29.88;;;11.95;;
72645;SDS011;60687;53.876;10.674;2024-02-21T02:27:43;32.47;;;11.90;;
72645;SDS011;60687;53.876;10.674;2024-02-21T02:37:49;21.80;;;10.33;;
72645;SDS011;60687;53.876;10.674;2024-02-21T02:47:56;23.38;;;10.45;;
72645;SDS011;60687;53.876;10.674;2024-02-21T02:58:01;23.60;;;9.40;;
72645;SDS011;60687;53.876;10.674;2024-02-21T03:08:06;22.67;;;10.60;;
72645;SDS011;60687;53.876;10.674;2024-02-21T03:18:09;20.50;;;10.00;;
72645;SDS011;60687;53.876;10.674;2024-02-21T03:28:13;21.50;;;10.15;;
72645;SDS011;60687;53.876;10.674;2024-02-21T03:38:18;23.30;;;11.07;;
72645;SDS011;60687;53.876;10.674;2024-02-21T03:48:22;26.53;;;11.53;;
72645;SDS011;60687;53.876;10.674;2024-02-21T03:58:25;26.92;;;12.13;;
72645;SDS011;60687;53.876;10.674;2024-02-21T04:08:31;25.73;;;11.73;;
72645;SDS011;60687;53.876;10.674;2024-02-21T04:18:36;24.30;;;12.27;;
72645;SDS011;60687;53.876;10.674;2024-02-21T04:28:40;24.08;;;11.88;;
72645;SDS011;60687;53.876;10.674;2024-02-21T04:38:42;21.23;;;9.97;;
72645;SDS011;60687;53.876;10.674;2024-02-21T04:48:46;23.00;;;10.77;;
72645;SDS011;60687;53.876;10.674;2024-02-21T04:58:52;22.92;;;10.05;;
72645;SDS011;60687;53.876;10.674;2024-02-21T05:08:56;21.10;;;9.93;;
72645;SDS011;60687;53.876;10.674;2024-02-21T05:18:59;26.40;;;10.77;;
72645;SDS011;60687;53.876;10.674;2024-02-21T05:29:03;20.37;;;8.87;;
72645;SDS011;60687;53.876;10.674;2024-02-21T05:39:05;17.90;;;7.28;;
72645;SDS011;60687;53.876;10.674;2024-02-21T05:49:10;14.80;;;7.83;;
72645;SDS011;60687;53.876;10.674;2024-02-21T05:59:16;11.23;;;4.40;;
72645;SDS011;60687;53.876;10.674;2024-02-21T06:09:20;7.65;;;3.15;;
72645;SDS011;60687;53.876;10.674;2024-02-21T06:19:23;7.67;;;3.00;;
72645;SDS011;60687;53.876;10.674;2024-02-21T06:29:27;9.37;;;3.10;;
72645;SDS011;60687;53.876;10.674;2024-02-21T06:39:30;8.32;;;2.67;;
72645;SDS011;60687;53.876;10.674;2024-02-21T06:49:39;8.20;;;2.20;;
72645;SDS011;60687;53.876;10.674;2024-02-21T06:59:43;6.03;;;1.80;;
72645;SDS011;60687;53.876;10.674;2024-02-21T07:09:47;6.50;;;1.60;;
72645;SDS011;60687;53.876;10.674;2024-02-21T07:19:49;6.25;;;1.75;;
72645;SDS011;60687;53.876;10.674;2024-02-21T07:29:53;5.43;;;1.47;;
72645;SDS011;60687;53.876;10.674;2024-02-21T07:39:56;5.50;;;1.43;;
72645;SDS011;60687;53.876;10.674;2024-02-21T07:50:00;8.75;;;1.90;;
72645;SDS011;60687;53.876;10.674;2024-02-21T08:00:04;6.47;;;1.80;;
72645;SDS011;60687;53.876;10.674;2024-02-21T08:10:20;6.17;;;1.97;;
72645;SDS011;60687;53.876;10.674;2024-02-21T08:20:25;8.00;;;2.45;;
72645;SDS011;60687;53.876;10.674;2024-02-21T08:30:29;8.45;;;2.63;;
72645;SDS011;60687;53.876;10.674;2024-02-21T08:40:32;8.80;;;2.93;;
72645;SDS011;60687;53.876;10.674;2024-02-21T08:50:37;12.03;;;3.17;;
72645;SDS011;60687;53.876;10.674;2024-02-21T09:00:40;12.52;;;2.78;;
72645;SDS011;60687;53.876;10.674;2024-02-21T09:10:44;12.47;;;2.73;;
72645;SDS011;60687;53.876;10.674;2024-02-21T09:20:50;12.90;;;2.67;;
72645;SDS011;60687;53.876;10.674;2024-02-21T09:30:58;12.95;;;2.40;;
72645;SDS011;60687;53.876;10.674;2024-02-21T09:41:06;10.83;;;3.00;;
72645;SDS011;60687;53.876;10.674;2024-02-21T09:51:34;14.23;;;3.30;;
72645;SDS011;60687;53.876;10.674;2024-02-21T10:01:53;8.80;;;1.73;;
72645;SDS011;60687;53.876;10.674;2024-02-21T10:12:12;12.60;;;2.20;;
72645;SDS011;60687;53.876;10.674;2024-02-21T10:22:23;10.73;;;2.30;;
72645;SDS011;60687;53.876;10.674;2024-02-21T10:32:32;10.43;;;2.00;;
72645;SDS011;60687;53.876;10.674;2024-02-21T10:42:56;14.23;;;2.83;;
72645;SDS011;60687;53.876;10.674;2024-02-21T10:53:39;10.50;;;1.87;;
72645;SDS011;60687;53.876;10.674;2024-02-21T11:04:01;12.13;;;1.80;;
72645;SDS011;60687;53.876;10.674;2024-02-21T11:14:19;12.00;;;2.20;;
72645;SDS011;60687;53.876;10.674;2024-02-21T11:24:35;10.67;;;2.13;;
72645;SDS011;60687;53.876;10.674;2024-02-21T11:45:27;9.65;;;2.47;;
72645;SDS011;60687;53.876;10.674;2024-02-21T11:55:51;9.07;;;2.10;;
72645;SDS011;60687;53.876;10.674;2024-02-21T12:05:59;7.63;;;2.40;;
72645;SDS011;60687;53.876;10.674;2024-02-21T12:16:06;16.03;;;7.03;;
72645;SDS011;60687;53.876;10.674;2024-02-21T12:26:17;11.68;;;5.03;;
72645;SDS011;60687;53.876;10.674;2024-02-21T12:36:31;11.27;;;5.27;;
72645;SDS011;60687;53.876;10.674;2024-02-21T12:46:36;14.73;;;7.57;;
72645;SDS011;60687;53.876;10.674;2024-02-21T12:56:48;16.85;;;7.72;;
72645;SDS011;60687;53.876;10.674;2024-02-21T13:07:00;17.23;;;7.50;;
72645;SDS011;60687;53.876;10.674;2024-02-21T13:17:22;16.83;;;7.20;;
72645;SDS011;60687;53.876;10.674;2024-02-21T13:27:48;18.58;;;6.95;;
72645;SDS011;60687;53.876;10.674;2024-02-21T13:38:35;14.68;;;6.72;;
72645;SDS011;60687;53.876;10.674;2024-02-21T13:48:46;14.37;;;6.37;;
72645;SDS011;60687;53.876;10.674;2024-02-21T14:09:56;17.23;;;7.38;;
72645;SDS011;60687;53.876;10.674;2024-02-21T14:20:08;13.70;;;6.63;;
72645;SDS011;60687;53.876;10.674;2024-02-21T14:30:16;16.20;;;8.47;;
72645;SDS011;60687;53.876;10.674;2024-02-21T14:40:31;16.08;;;8.60;;
72645;SDS011;60687;53.876;10.674;2024-02-21T14:50:41;17.03;;;7.73;;
72645;SDS011;60687;53.876;10.674;2024-02-21T15:00:52;17.93;;;8.23;;
72645;SDS011;60687;53.876;10.674;2024-02-21T15:11:18;17.83;;;7.28;;
72645;SDS011;60687;53.876;10.674;2024-02-21T15:21:38;17.45;;;8.20;;
72645;SDS011;60687;53.876;10.674;2024-02-21T15:31:59;18.00;;;8.50;;
72645;SDS011;60687;53.876;10.674;2024-02-21T15:42:17;17.63;;;8.10;;
72645;SDS011;60687;53.876;10.674;2024-02-21T15:53:08;15.68;;;8.95;;
72645;SDS011;60687;53.876;10.674;2024-02-21T16:04:06;15.53;;;7.30;;
72645;SDS011;60687;53.876;10.674;2024-02-21T16:15:15;14.43;;;7.90;;
72645;SDS011;60687;53.876;10.674;2024-02-21T16:58:32;14.75;;;6.90;;
72645;SDS011;60687;53.876;10.674;2024-02-21T17:09:26;16.27;;;7.18;;
72645;SDS011;60687;53.876;10.674;2024-02-21T17:19:37;13.67;;;6.90;;
72645;SDS011;60687;53.876;10.674;2024-02-21T17:29:49;12.27;;;5.90;;
72645;SDS011;60687;53.876;10.674;2024-02-21T17:40:16;13.25;;;5.90;;
72645;SDS011;60687;53.876;10.674;2024-02-21T17:50:35;12.27;;;5.03;;
72645;SDS011;60687;53.876;10.674;2024-02-21T18:00:57;9.93;;;4.53;;
72645;SDS011;60687;53.876;10.674;2024-02-21T18:11:09;9.07;;;4.47;;
72645;SDS011;60687;53.876;10.674;2024-02-21T18:21:50;8.33;;;3.67;;
72645;SDS011;60687;53.876;10.674;2024-02-21T18:32:53;11.03;;;4.10;;
72645;SDS011;60687;53.876;10.674;2024-02-21T18:54:04;9.25;;;3.92;;
72645;SDS011;60687;53.876;10.674;2024-02-21T19:04:46;7.83;;;3.47;;
72645;SDS011;60687;53.876;10.674;2024-02-21T19:14:58;9.50;;;3.53;;
72645;SDS011;60687;53.876;10.674;2024-02-21T19:35:52;10.57;;;3.50;;
72645;SDS011;60687;53.876;10.674;2024-02-21T19:46:54;8.37;;;3.30;;
72645;SDS011;60687;53.876;10.674;2024-02-21T19:57:43;10.48;;;3.33;;
72645;SDS011;60687;53.876;10.674;2024-02-21T20:19:15;9.07;;;3.33;;
72645;SDS011;60687;53.876;10.674;2024-02-21T20:41:34;9.75;;;3.40;;
72645;SDS011;60687;53.876;10.674;2024-02-21T21:03:30;8.63;;;3.37;;
72645;SDS011;60687;53.876;10.674;2024-02-21T21:13:48;8.73;;;2.88;;
72645;SDS011;60687;53.876;10.674;2024-02-21T21:24:32;9.80;;;2.70;;
72645;SDS011;60687;53.876;10.674;2024-02-21T21:46:16;10.75;;;3.88;;
72645;SDS011;60687;53.876;10.674;2024-02-21T21:56:45;8.07;;;3.10;;
72645;SDS011;60687;53.876;10.674;2024-02-21T22:07:27;10.13;;;2.73;;
72645;SDS011;60687;53.876;10.674;2024-02-21T22:17:50;9.52;;;3.22;;
72645;SDS011;60687;53.876;10.674;2024-02-21T22:28:08;10.68;;;3.05;;
72645;SDS011;60687;53.876;10.674;2024-02-21T22:38:16;9.67;;;3.20;;
72645;SDS011;60687;53.876;10.674;2024-02-21T22:48:40;10.17;;;3.07;;
72645;SDS011;60687;53.876;10.674;2024-02-21T22:58:52;8.07;;;2.70;;
72645;SDS011;60687;53.876;10.674;2024-02-21T23:09:11;10.00;;;3.13;;
72645;SDS011;60687;53.876;10.674;2024-02-21T23:19:48;10.00;;;3.30;;
72645;SDS011;60687;53.876;10.674;2024-02-21T23:30:10;8.88;;;3.00;;
72645;SDS011;60687;53.876;10.674;2024-02-21T23:40:19;7.90;;;2.87;;
72645;SDS011;60687;53.876;10.674;2024-02-21T23:50:28;10.90;;;3.03;;
